Time;durP1;ratioP1;P1;durP2;ratioP2;P2;SDS_P1;SDS_P2;PMS_P1;PMS_P2;Temp;Humidity;BMP_temperature;BMP_pressure;BME280_temperature;BME280_humidity;BME280_pressure;Samples;Min_cycle;Max_cycle;Signal;HPM_P1;HPM_P2
2021/11/11 00:01:34;;;;;;;19.08;13.75;;;;;;;;;;5031009;28;20297;-81
2021/11/11 00:04:01;;;;;;;19.67;13.55;;;;;;;;;;5030002;28;20249;-83
2021/11/11 00:06:29;;;;;;;22.40;14.18;;;;;;;;;;5031149;28;20211;-84
2021/11/11 00:08:56;;;;;;;17.73;13.10;;;;;;;;;;5035965;28;20191;-81
2021/11/11 00:11:23;;;;;;;21.15;15.18;;;;;;;;;;5037996;28;20210;-80
2021/11/11 00:13:51;;;;;;;19.10;13.35;;;;;;;;;;5039423;28;20195;-79
2021/11/11 00:16:18;;;;;;;19.60;14.00;;;;;;;;;;5031637;28;20199;-79
2021/11/11 00:18:46;;;;;;;17.63;13.70;;;;;;;;;;5023315;28;20192;-79
2021/11/11 00:21:13;;;;;;;18.73;13.18;;;;;;;;;;5027798;28;20306;-81
2021/11/11 00:23:42;;;;;;;18.30;13.40;;;;;;;;;;5025863;28;20223;-81
2021/11/11 00:26:09;;;;;;;18.45;13.77;;;;;;;;;;5036016;28;20191;-81
2021/11/11 00:28:36;;;;;;;19.52;14.40;;;;;;;;;;5040616;28;20202;-82
2021/11/11 00:31:04;;;;;;;18.15;12.88;;;;;;;;;;5032880;28;20707;-83
2021/11/11 00:33:31;;;;;;;22.63;15.25;;;;;;;;;;5030206;28;20191;-81
2021/11/11 00:35:59;;;;;;;21.92;13.80;;;;;;;;;;5028014;28;20195;-79
2021/11/11 00:38:27;;;;;;;20.77;14.38;;;;;;;;;;5028574;28;20204;-78
2021/11/11 00:40:54;;;;;;;20.80;15.55;;;;;;;;;;5034773;28;20633;-80
2021/11/11 00:43:21;;;;;;;21.48;14.85;;;;;;;;;;5034568;28;20215;-84
2021/11/11 00:45:49;;;;;;;19.25;13.88;;;;;;;;;;5031451;28;20663;-80
2021/11/11 00:48:16;;;;;;;19.48;14.30;;;;;;;;;;5022530;28;20191;-81
2021/11/11 00:50:46;;;;;;;18.10;13.68;;;;;;;;;;5014219;28;20203;-80
2021/11/11 00:53:14;;;;;;;23.63;15.02;;;;;;;;;;5026367;28;20546;-79
2021/11/11 00:55:42;;;;;;;19.88;14.02;;;;;;;;;;5033249;28;20648;-79
2021/11/11 00:58:09;;;;;;;21.77;12.80;;;;;;;;;;5031311;28;20559;-80
2021/11/11 01:00:38;;;;;;;25.25;14.88;;;;;;;;;;5032674;28;20206;-79
2021/11/11 01:03:06;;;;;;;18.63;13.85;;;;;;;;;;5034640;28;20280;-82
2021/11/11 01:05:33;;;;;;;17.05;13.13;;;;;;;;;;5018158;28;20183;-82
2021/11/11 01:08:00;;;;;;;18.58;13.05;;;;;;;;;;4998605;28;20204;-82
2021/11/11 01:10:29;;;;;;;19.30;13.13;;;;;;;;;;5028282;28;20191;-79
2021/11/11 01:12:58;;;;;;;17.63;13.60;;;;;;;;;;5031235;28;20225;-80
2021/11/11 01:15:27;;;;;;;20.35;13.32;;;;;;;;;;5029878;28;20245;-80
2021/11/11 01:17:54;;;;;;;20.30;14.18;;;;;;;;;;5017163;28;20214;-80
2021/11/11 01:20:22;;;;;;;18.33;13.23;;;;;;;;;;5032833;28;20199;-78
2021/11/11 01:22:50;;;;;;;19.17;14.07;;;;;;;;;;5017575;28;20903;-81
2021/11/11 01:25:19;;;;;;;21.88;15.07;;;;;;;;;;4997161;28;20195;-82
2021/11/11 01:27:47;;;;;;;22.63;14.60;;;;;;;;;;5013962;28;20191;-80
2021/11/11 01:30:15;;;;;;;21.63;14.85;;;;;;;;;;5019768;28;20192;-80
2021/11/11 01:32:42;;;;;;;22.85;14.10;;;;;;;;;;5022906;28;20219;-82
2021/11/11 01:35:12;;;;;;;22.55;13.80;;;;;;;;;;5032867;28;20551;-80
2021/11/11 01:37:41;;;;;;;27.10;14.45;;;;;;;;;;5035149;28;20265;-80
2021/11/11 01:40:09;;;;;;;22.33;14.20;;;;;;;;;;5019452;28;20196;-81
2021/11/11 01:42:44;;;;;;;24.08;15.27;;;;;;;;;;5012185;28;20656;-81
2021/11/11 01:45:13;;;;;;;23.48;15.98;;;;;;;;;;4996807;28;20198;-79
2021/11/11 01:47:40;;;;;;;25.15;15.57;;;;;;;;;;5011723;28;20200;-79
2021/11/11 01:50:08;;;;;;;24.50;16.40;;;;;;;;;;5028821;28;20210;-79
2021/11/11 01:52:36;;;;;;;25.20;15.13;;;;;;;;;;5023946;28;20701;-79
2021/11/11 01:57:45;;;;;;;26.63;15.80;;;;;;;;;;4977590;28;20717;-79
2021/11/11 02:00:16;;;;;;;22.33;14.85;;;;;;;;;;4980991;28;20212;-79
2021/11/11 02:02:43;;;;;;;28.45;17.08;;;;;;;;;;4993020;28;20220;-79
2021/11/11 02:05:11;;;;;;;29.08;17.17;;;;;;;;;;4970402;28;20200;-80
2021/11/11 02:07:38;;;;;;;30.20;17.13;;;;;;;;;;4972332;28;20201;-79
2021/11/11 02:10:06;;;;;;;28.55;17.15;;;;;;;;;;4987433;28;20525;-80
2021/11/11 02:12:33;;;;;;;29.38;18.95;;;;;;;;;;4994410;28;20228;-80
2021/11/11 02:15:01;;;;;;;23.70;15.70;;;;;;;;;;4985855;28;20193;-79
2021/11/11 02:17:30;;;;;;;29.35;16.23;;;;;;;;;;5034087;28;20541;-83
2021/11/11 02:20:00;;;;;;;24.90;15.75;;;;;;;;;;5015662;28;20191;-81
2021/11/11 02:22:27;;;;;;;22.17;14.95;;;;;;;;;;5031299;28;20220;-80
2021/11/11 02:24:55;;;;;;;24.23;15.00;;;;;;;;;;5034073;28;20194;-78
2021/11/11 02:27:22;;;;;;;21.95;15.27;;;;;;;;;;5034356;28;20206;-79
2021/11/11 02:29:49;;;;;;;23.77;14.90;;;;;;;;;;5017244;28;20203;-78
2021/11/11 02:32:17;;;;;;;17.92;13.95;;;;;;;;;;5034906;28;20230;-79
2021/11/11 02:34:44;;;;;;;17.55;13.40;;;;;;;;;;5020418;28;20199;-78
2021/11/11 02:37:12;;;;;;;21.95;14.20;;;;;;;;;;5037537;28;20200;-80
2021/11/11 02:39:40;;;;;;;21.58;13.88;;;;;;;;;;5035386;28;20195;-77
2021/11/11 02:42:07;;;;;;;23.67;14.68;;;;;;;;;;5031534;28;20215;-81
2021/11/11 02:44:40;;;;;;;18.90;13.30;;;;;;;;;;5030074;28;20886;-79
2021/11/11 02:47:07;;;;;;;23.35;13.95;;;;;;;;;;5015476;28;20277;-79
2021/11/11 02:49:35;;;;;;;22.33;14.40;;;;;;;;;;5033144;28;20204;-80
2021/11/11 02:52:02;;;;;;;21.20;14.10;;;;;;;;;;5029607;28;20219;-79
2021/11/11 02:54:35;;;;;;;20.23;14.05;;;;;;;;;;5034990;28;20202;-79
2021/11/11 02:57:02;;;;;;;25.48;16.38;;;;;;;;;;5036871;28;20224;-82
2021/11/11 02:59:30;;;;;;;23.48;14.90;;;;;;;;;;5035962;28;20626;-80
2021/11/11 03:01:57;;;;;;;33.03;15.25;;;;;;;;;;5032423;28;20227;-80
2021/11/11 03:04:24;;;;;;;25.10;16.30;;;;;;;;;;5027397;28;20226;-81
2021/11/11 03:06:51;;;;;;;30.38;15.98;;;;;;;;;;5031978;28;20554;-80
2021/11/11 03:09:18;;;;;;;30.38;17.83;;;;;;;;;;5032298;28;20299;-81
2021/11/11 03:11:49;;;;;;;31.38;17.80;;;;;;;;;;5038577;28;20231;-79
2021/11/11 03:14:16;;;;;;;35.28;16.90;;;;;;;;;;5037500;28;20187;-80
2021/11/11 03:16:44;;;;;;;34.83;18.10;;;;;;;;;;5046857;28;20194;-81
2021/11/11 03:19:11;;;;;;;27.05;17.17;;;;;;;;;;5049955;28;20340;-80
2021/11/11 03:21:38;;;;;;;31.33;16.77;;;;;;;;;;5014571;28;20688;-80
2021/11/11 03:24:05;;;;;;;32.85;17.08;;;;;;;;;;5022460;28;20231;-81
2021/11/11 03:26:37;;;;;;;30.90;17.02;;;;;;;;;;5027066;28;20202;-80
2021/11/11 03:29:05;;;;;;;26.80;15.63;;;;;;;;;;5036706;28;20237;-80
2021/11/11 03:31:32;;;;;;;25.63;15.70;;;;;;;;;;5035016;28;20212;-78
2021/11/11 03:33:59;;;;;;;28.08;16.77;;;;;;;;;;5029071;28;20203;-79
2021/11/11 03:36:27;;;;;;;36.28;16.25;;;;;;;;;;5020842;28;20557;-80
2021/11/11 03:38:54;;;;;;;37.50;17.15;;;;;;;;;;5034721;28;20537;-79
2021/11/11 03:41:21;;;;;;;26.60;15.77;;;;;;;;;;5034718;28;20233;-78
2021/11/11 03:43:48;;;;;;;35.55;17.05;;;;;;;;;;5042258;28;20221;-80
2021/11/11 03:46:17;;;;;;;42.13;17.48;;;;;;;;;;5036519;28;20199;-80
2021/11/11 03:48:44;;;;;;;26.10;15.98;;;;;;;;;;5032648;28;20196;-79
2021/11/11 03:51:11;;;;;;;30.30;15.90;;;;;;;;;;5030012;28;20227;-80
2021/11/11 03:53:39;;;;;;;33.92;15.63;;;;;;;;;;5028669;28;20195;-80
2021/11/11 03:56:21;;;;;;;31.73;15.85;;;;;;;;;;5020999;28;20197;-81
2021/11/11 03:58:49;;;;;;;23.70;15.27;;;;;;;;;;4965633;28;20607;-80
2021/11/11 04:01:18;;;;;;;31.20;16.45;;;;;;;;;;4971788;28;20666;-80
2021/11/11 04:03:45;;;;;;;22.15;15.77;;;;;;;;;;4976566;28;20224;-79
2021/11/11 04:06:13;;;;;;;29.67;15.30;;;;;;;;;;4973738;28;20193;-82
2021/11/11 04:08:40;;;;;;;35.90;18.20;;;;;;;;;;4970555;28;20204;-81
2021/11/11 04:11:07;;;;;;;41.30;17.73;;;;;;;;;;4969101;28;20212;-79
2021/11/11 04:13:34;;;;;;;58.90;18.38;;;;;;;;;;4969101;28;20568;-79
2021/11/11 04:16:01;;;;;;;46.95;16.10;;;;;;;;;;4973137;28;20879;-81
2021/11/11 04:18:30;;;;;;;36.22;16.95;;;;;;;;;;4974727;28;20192;-79
2021/11/11 04:21:00;;;;;;;37.58;16.48;;;;;;;;;;4970177;28;20682;-82
2021/11/11 04:23:27;;;;;;;41.67;15.75;;;;;;;;;;4952235;28;20228;-80
2021/11/11 04:26:00;;;;;;;29.50;15.10;;;;;;;;;;4968894;28;20193;-82
2021/11/11 04:28:29;;;;;;;35.97;16.73;;;;;;;;;;4953257;28;20200;-81
2021/11/11 04:30:58;;;;;;;30.23;16.75;;;;;;;;;;5009860;28;20233;-80
2021/11/11 04:33:26;;;;;;;34.20;15.55;;;;;;;;;;5034557;28;20278;-80
2021/11/11 04:35:58;;;;;;;30.50;15.82;;;;;;;;;;5040665;28;20229;-80
2021/11/11 04:38:33;;;;;;;23.60;14.02;;;;;;;;;;5031507;28;20206;-80
2021/11/11 04:41:15;;;;;;;27.33;14.40;;;;;;;;;;5022182;28;20302;-80
2021/11/11 04:43:53;;;;;;;26.25;14.40;;;;;;;;;;5011039;28;20612;-83
2021/11/11 04:51:51;;;;;;;28.00;13.98;;;;;;;;;;5037001;28;20273;-80
2021/11/11 04:59:41;;;;;;;26.37;13.73;;;;;;;;;;5014497;28;20191;-80
2021/11/11 05:02:22;;;;;;;35.40;14.30;;;;;;;;;;5030514;28;20478;-79
2021/11/11 05:04:49;;;;;;;22.55;12.77;;;;;;;;;;5034711;28;20254;-82
2021/11/11 05:07:17;;;;;;;23.05;14.00;;;;;;;;;;5037035;28;20193;-79
2021/11/11 05:09:45;;;;;;;27.10;13.88;;;;;;;;;;5029832;28;20195;-81
2021/11/11 05:12:13;;;;;;;31.63;13.80;;;;;;;;;;5022037;28;20215;-81
2021/11/11 05:14:41;;;;;;;31.00;13.48;;;;;;;;;;5011635;28;20230;-81
2021/11/11 05:17:09;;;;;;;26.67;14.15;;;;;;;;;;5031165;28;20243;-82
2021/11/11 05:19:38;;;;;;;24.23;13.85;;;;;;;;;;5030021;28;20684;-82
2021/11/11 05:22:05;;;;;;;26.05;14.75;;;;;;;;;;5036458;28;20214;-79
2021/11/11 05:24:34;;;;;;;30.33;16.58;;;;;;;;;;5025659;28;20361;-80
2021/11/11 05:27:04;;;;;;;21.60;13.85;;;;;;;;;;5030598;28;20195;-81
2021/11/11 05:29:31;;;;;;;32.78;15.80;;;;;;;;;;5030594;28;20219;-82
2021/11/11 05:31:58;;;;;;;33.67;15.95;;;;;;;;;;5030703;28;20302;-79
2021/11/11 05:34:25;;;;;;;33.35;15.70;;;;;;;;;;5030539;28;20195;-81
2021/11/11 05:36:52;;;;;;;32.25;14.82;;;;;;;;;;5036801;28;20203;-81
2021/11/11 05:39:20;;;;;;;22.98;13.68;;;;;;;;;;5029550;28;20204;-79
2021/11/11 05:41:48;;;;;;;22.83;14.77;;;;;;;;;;5030356;28;20214;-82
2021/11/11 05:44:15;;;;;;;26.75;15.02;;;;;;;;;;5032291;28;20215;-80
2021/11/11 05:46:43;;;;;;;31.50;15.88;;;;;;;;;;5033720;28;20644;-79
2021/11/11 05:49:10;;;;;;;32.03;15.15;;;;;;;;;;5029355;28;20196;-80
2021/11/11 05:51:37;;;;;;;31.52;15.35;;;;;;;;;;5038640;28;20246;-81
2021/11/11 05:54:04;;;;;;;27.55;14.20;;;;;;;;;;5039228;28;20245;-79
2021/11/11 05:56:31;;;;;;;23.23;15.40;;;;;;;;;;5033914;28;20274;-80
2021/11/11 05:59:00;;;;;;;24.13;14.00;;;;;;;;;;5034415;28;20302;-79
2021/11/11 06:01:28;;;;;;;25.33;14.23;;;;;;;;;;5017176;28;20230;-80
2021/11/11 06:03:55;;;;;;;27.38;14.48;;;;;;;;;;5033152;28;20281;-78
2021/11/11 06:06:22;;;;;;;25.95;14.50;;;;;;;;;;5036842;28;20574;-82
2021/11/11 06:08:51;;;;;;;22.38;13.32;;;;;;;;;;5039295;28;20559;-80
2021/11/11 06:11:19;;;;;;;25.80;14.55;;;;;;;;;;5034339;28;20298;-81
2021/11/11 06:13:46;;;;;;;35.30;15.70;;;;;;;;;;5032611;28;20556;-80
2021/11/11 06:16:15;;;;;;;31.58;14.80;;;;;;;;;;5034278;28;20667;-79
2021/11/11 06:18:43;;;;;;;27.50;14.23;;;;;;;;;;5028083;28;20211;-81
2021/11/11 06:21:10;;;;;;;24.38;13.57;;;;;;;;;;5013720;28;20227;-80
2021/11/11 06:23:37;;;;;;;28.40;15.20;;;;;;;;;;5035817;28;20198;-81
2021/11/11 06:26:05;;;;;;;23.85;15.15;;;;;;;;;;5033647;28;20195;-80
2021/11/11 06:28:32;;;;;;;32.15;15.80;;;;;;;;;;5020388;28;20691;-80
2021/11/11 06:30:59;;;;;;;29.88;13.15;;;;;;;;;;5036068;28;20225;-80
2021/11/11 06:33:28;;;;;;;23.00;14.48;;;;;;;;;;5050302;28;20194;-79
2021/11/11 06:35:55;;;;;;;26.83;15.50;;;;;;;;;;5037911;28;20199;-78
2021/11/11 06:38:22;;;;;;;33.13;15.70;;;;;;;;;;5027246;28;20188;-79
2021/11/11 06:40:52;;;;;;;30.60;14.68;;;;;;;;;;5032255;28;20195;-79
2021/11/11 06:43:19;;;;;;;33.53;16.95;;;;;;;;;;5034054;28;20199;-80
2021/11/11 06:45:46;;;;;;;37.80;15.73;;;;;;;;;;5020256;28;20228;-80
2021/11/11 06:48:14;;;;;;;26.38;13.88;;;;;;;;;;5015464;28;20553;-80
2021/11/11 06:50:44;;;;;;;28.95;14.65;;;;;;;;;;5011486;28;20660;-78
2021/11/11 06:53:12;;;;;;;29.52;14.75;;;;;;;;;;5038542;28;20256;-82
2021/11/11 06:55:41;;;;;;;27.85;15.60;;;;;;;;;;5002303;28;20207;-81
2021/11/11 06:58:09;;;;;;;31.13;15.60;;;;;;;;;;5005815;28;20220;-81
2021/11/11 07:00:37;;;;;;;33.33;13.93;;;;;;;;;;5009286;28;20225;-81
2021/11/11 07:03:04;;;;;;;29.25;15.00;;;;;;;;;;5031212;28;20198;-83
2021/11/11 07:05:31;;;;;;;33.15;15.35;;;;;;;;;;5037473;28;20239;-80
2021/11/11 07:08:00;;;;;;;24.13;14.90;;;;;;;;;;5037324;28;20208;-78
2021/11/11 07:10:27;;;;;;;38.08;15.50;;;;;;;;;;5036503;28;20675;-80
2021/11/11 07:12:54;;;;;;;29.05;15.52;;;;;;;;;;4994382;28;20212;-80
2021/11/11 07:15:21;;;;;;;25.20;15.00;;;;;;;;;;5025431;28;20195;-80
2021/11/11 07:17:49;;;;;;;30.25;16.35;;;;;;;;;;5031319;28;20191;-83
2021/11/11 07:20:17;;;;;;;39.00;16.77;;;;;;;;;;5031913;28;20227;-83
2021/11/11 07:22:45;;;;;;;33.70;14.68;;;;;;;;;;5018236;28;20329;-83
2021/11/11 07:25:15;;;;;;;27.35;15.93;;;;;;;;;;5028239;28;20318;-84
2021/11/11 07:27:43;;;;;;;29.05;14.55;;;;;;;;;;5035227;28;20191;-83
2021/11/11 07:30:11;;;;;;;49.83;16.52;;;;;;;;;;5037225;28;20188;-80
2021/11/11 07:32:39;;;;;;;33.20;15.23;;;;;;;;;;5031155;28;20211;-79
2021/11/11 07:35:08;;;;;;;22.48;14.07;;;;;;;;;;5027346;28;20192;-81
2021/11/11 07:37:36;;;;;;;48.60;16.75;;;;;;;;;;5015051;28;20199;-79
2021/11/11 07:40:04;;;;;;;37.92;15.32;;;;;;;;;;5033007;28;20548;-80
2021/11/11 07:42:34;;;;;;;46.65;15.90;;;;;;;;;;5042628;28;20222;-80
2021/11/11 07:45:01;;;;;;;30.75;14.68;;;;;;;;;;5041962;28;20223;-80
2021/11/11 07:47:28;;;;;;;24.60;15.02;;;;;;;;;;5004243;28;20282;-80
2021/11/11 07:49:57;;;;;;;32.88;15.80;;;;;;;;;;5026866;28;20199;-79
2021/11/11 07:52:24;;;;;;;29.73;16.85;;;;;;;;;;5037856;28;20648;-79
2021/11/11 07:54:51;;;;;;;47.95;18.05;;;;;;;;;;5029278;28;20192;-78
2021/11/11 07:57:21;;;;;;;35.10;17.65;;;;;;;;;;5013317;28;20725;-80
2021/11/11 07:59:51;;;;;;;37.75;17.10;;;;;;;;;;5015906;28;20242;-80
2021/11/11 08:02:19;;;;;;;32.47;17.38;;;;;;;;;;5030229;28;20231;-80
2021/11/11 08:04:46;;;;;;;41.55;16.58;;;;;;;;;;5030331;28;20591;-80
2021/11/11 08:07:17;;;;;;;35.72;15.35;;;;;;;;;;5013477;28;20192;-81
2021/11/11 08:09:44;;;;;;;32.72;15.73;;;;;;;;;;5031359;28;20195;-81
2021/11/11 08:12:11;;;;;;;49.55;18.08;;;;;;;;;;5033800;28;20699;-79
2021/11/11 08:14:39;;;;;;;31.25;17.27;;;;;;;;;;5035564;28;20195;-80
2021/11/11 08:17:08;;;;;;;31.15;17.67;;;;;;;;;;5038152;28;20186;-80
2021/11/11 08:19:35;;;;;;;61.90;18.33;;;;;;;;;;5012786;28;20249;-83
2021/11/11 08:22:03;;;;;;;57.53;18.83;;;;;;;;;;5021512;28;20227;-78
2021/11/11 08:24:31;;;;;;;36.28;17.83;;;;;;;;;;5011326;28;20215;-82
2021/11/11 08:26:59;;;;;;;35.92;18.08;;;;;;;;;;5036250;28;20205;-78
2021/11/11 08:29:26;;;;;;;39.28;18.40;;;;;;;;;;5037078;28;20195;-80
2021/11/11 08:31:53;;;;;;;39.85;18.23;;;;;;;;;;5034802;28;20207;-79
2021/11/11 08:34:22;;;;;;;33.05;18.95;;;;;;;;;;5030283;28;20188;-82
2021/11/11 08:36:49;;;;;;;47.03;20.90;;;;;;;;;;5025605;28;20682;-78
2021/11/11 08:39:16;;;;;;;29.70;18.52;;;;;;;;;;5021217;28;20188;-78
2021/11/11 08:41:43;;;;;;;34.15;16.65;;;;;;;;;;5025919;28;20696;-78
2021/11/11 08:44:13;;;;;;;36.45;20.17;;;;;;;;;;5037054;28;20199;-80
2021/11/11 08:46:40;;;;;;;35.13;18.10;;;;;;;;;;5036712;28;20215;-79
2021/11/11 08:49:10;;;;;;;29.65;18.52;;;;;;;;;;5028819;28;20206;-78
2021/11/11 08:51:40;;;;;;;35.63;16.92;;;;;;;;;;5029393;28;20211;-77
2021/11/11 08:54:07;;;;;;;29.73;16.83;;;;;;;;;;5024409;28;20188;-82
2021/11/11 08:56:35;;;;;;;29.98;16.60;;;;;;;;;;5014128;28;20207;-76
2021/11/11 08:59:02;;;;;;;41.53;17.45;;;;;;;;;;5031736;28;20203;-79
2021/11/11 09:01:31;;;;;;;31.25;16.60;;;;;;;;;;5034501;28;20225;-79
2021/11/11 09:03:58;;;;;;;26.63;17.20;;;;;;;;;;5031001;28;20779;-78
2021/11/11 09:06:26;;;;;;;27.52;18.00;;;;;;;;;;5030442;28;20231;-79
2021/11/11 09:08:54;;;;;;;27.00;15.85;;;;;;;;;;5029919;28;20203;-78
2021/11/11 09:11:22;;;;;;;31.30;15.98;;;;;;;;;;5030760;28;20219;-82
2021/11/11 09:13:49;;;;;;;31.63;16.77;;;;;;;;;;5032560;28;20209;-78
2021/11/11 09:16:17;;;;;;;32.40;19.15;;;;;;;;;;5035152;28;20201;-78
2021/11/11 09:18:44;;;;;;;34.28;18.73;;;;;;;;;;5031393;28;20677;-79
2021/11/11 09:21:13;;;;;;;30.05;18.48;;;;;;;;;;5033576;28;20215;-79
2021/11/11 09:23:41;;;;;;;30.15;18.15;;;;;;;;;;5033562;28;20199;-82
2021/11/11 09:26:10;;;;;;;36.47;20.50;;;;;;;;;;5023762;28;20231;-80
2021/11/11 09:28:38;;;;;;;33.10;19.25;;;;;;;;;;5016265;28;20209;-77
2021/11/11 09:31:06;;;;;;;35.45;19.05;;;;;;;;;;5032923;28;20265;-76
2021/11/11 09:33:33;;;;;;;41.70;18.92;;;;;;;;;;5045433;28;20695;-79
2021/11/11 09:36:00;;;;;;;30.92;18.67;;;;;;;;;;5037849;28;20191;-80
2021/11/11 09:38:27;;;;;;;32.15;18.73;;;;;;;;;;5043971;28;20191;-78
2021/11/11 09:40:55;;;;;;;33.33;18.45;;;;;;;;;;5045587;28;20561;-77
2021/11/11 09:43:24;;;;;;;33.47;19.90;;;;;;;;;;5026128;28;20231;-77
2021/11/11 09:45:51;;;;;;;39.22;21.33;;;;;;;;;;5042763;28;20364;-79
2021/11/11 09:48:18;;;;;;;35.67;18.65;;;;;;;;;;5043401;28;20191;-80
2021/11/11 09:50:46;;;;;;;34.85;20.75;;;;;;;;;;5039785;28;20202;-80
2021/11/11 09:53:15;;;;;;;36.10;19.52;;;;;;;;;;5037478;28;20923;-81
2021/11/11 10:01:08;;;;;;;35.35;18.95;;;;;;;;;;5018734;28;20223;-80
2021/11/11 10:03:41;;;;;;;33.30;19.50;;;;;;;;;;5043578;28;20199;-77
2021/11/11 10:06:08;;;;;;;38.75;21.48;;;;;;;;;;5040495;28;20225;-78
2021/11/11 10:08:36;;;;;;;38.78;21.15;;;;;;;;;;5043591;28;20205;-77
2021/11/11 10:11:04;;;;;;;35.40;20.60;;;;;;;;;;5050536;28;20630;-78
2021/11/11 10:13:33;;;;;;;33.85;20.30;;;;;;;;;;5021687;28;20199;-79
2021/11/11 10:16:02;;;;;;;34.80;19.98;;;;;;;;;;5038805;28;20198;-79
2021/11/11 10:18:44;;;;;;;35.65;20.65;;;;;;;;;;5019999;28;20199;-78
2021/11/11 10:21:27;;;;;;;34.03;20.35;;;;;;;;;;5019055;28;20223;-80
2021/11/11 10:23:55;;;;;;;38.35;21.60;;;;;;;;;;5028286;28;20221;-79
2021/11/11 10:26:27;;;;;;;33.35;20.23;;;;;;;;;;5026304;28;20587;-79
2021/11/11 10:28:55;;;;;;;38.75;23.30;;;;;;;;;;5037398;28;20203;-78
2021/11/11 10:31:23;;;;;;;44.63;23.02;;;;;;;;;;5032868;28;20218;-80
2021/11/11 10:34:04;;;;;;;39.30;23.17;;;;;;;;;;5031531;28;20191;-80
2021/11/11 10:36:39;;;;;;;38.30;21.98;;;;;;;;;;5041751;28;20187;-82
2021/11/11 10:39:11;;;;;;;40.83;22.90;;;;;;;;;;5038587;28;20194;-77
2021/11/11 10:41:38;;;;;;;43.20;25.63;;;;;;;;;;5025466;28;20218;-77
2021/11/11 10:44:18;;;;;;;44.22;25.13;;;;;;;;;;5039012;28;20203;-78
2021/11/11 10:46:46;;;;;;;50.10;23.85;;;;;;;;;;5028666;28;20223;-75
2021/11/11 10:49:21;;;;;;;44.72;24.67;;;;;;;;;;5013714;28;20287;-78
2021/11/11 10:51:49;;;;;;;45.40;27.17;;;;;;;;;;5024014;28;20235;-78
2021/11/11 10:54:16;;;;;;;46.70;26.45;;;;;;;;;;5040438;28;20183;-79
2021/11/11 10:56:44;;;;;;;48.45;26.20;;;;;;;;;;5022987;28;20199;-78
2021/11/11 10:59:14;;;;;;;44.97;24.92;;;;;;;;;;5036595;28;20203;-80
2021/11/11 11:01:42;;;;;;;45.75;25.58;;;;;;;;;;5031930;28;20314;-80
2021/11/11 11:04:24;;;;;;;49.30;26.15;;;;;;;;;;5026257;28;20665;-80
2021/11/11 11:06:51;;;;;;;47.35;26.60;;;;;;;;;;5014464;28;20229;-78
2021/11/11 11:09:18;;;;;;;53.55;28.92;;;;;;;;;;5034211;28;20218;-78
2021/11/11 11:11:46;;;;;;;51.75;28.20;;;;;;;;;;5024365;28;20255;-79
2021/11/11 11:14:15;;;;;;;56.85;31.50;;;;;;;;;;5036962;28;20188;-79
2021/11/11 11:16:44;;;;;;;63.60;30.25;;;;;;;;;;5034576;28;20195;-78
2021/11/11 11:19:13;;;;;;;66.72;34.50;;;;;;;;;;5043354;28;20594;-77
2021/11/11 11:21:42;;;;;;;55.33;30.13;;;;;;;;;;5033582;28;20215;-77
2021/11/11 11:24:11;;;;;;;62.15;30.38;;;;;;;;;;5037195;28;20198;-78
2021/11/11 11:26:39;;;;;;;60.00;30.63;;;;;;;;;;5011715;28;20221;-79
2021/11/11 11:29:11;;;;;;;67.18;33.00;;;;;;;;;;5030151;28;20211;-78
2021/11/11 11:31:44;;;;;;;72.22;34.78;;;;;;;;;;5045005;28;20265;-79
2021/11/11 11:34:14;;;;;;;65.25;33.65;;;;;;;;;;5048239;28;20663;-75
2021/11/11 11:36:44;;;;;;;66.53;36.25;;;;;;;;;;5046476;28;20226;-79
2021/11/11 11:39:13;;;;;;;74.63;37.22;;;;;;;;;;4996214;28;20196;-80
2021/11/11 11:41:41;;;;;;;64.43;34.20;;;;;;;;;;5009880;28;20219;-79
2021/11/11 11:44:24;;;;;;;70.30;36.50;;;;;;;;;;5033781;28;20195;-81
2021/11/11 11:46:54;;;;;;;73.07;34.53;;;;;;;;;;5035447;28;20319;-78
2021/11/11 11:49:23;;;;;;;70.85;36.85;;;;;;;;;;5033892;28;20716;-78
2021/11/11 11:51:50;;;;;;;71.32;36.35;;;;;;;;;;5020281;28;20597;-79
2021/11/11 11:54:24;;;;;;;70.10;38.05;;;;;;;;;;5007947;28;20198;-80
2021/11/11 11:56:55;;;;;;;77.22;37.50;;;;;;;;;;5013699;28;20199;-78
2021/11/11 11:59:25;;;;;;;75.35;37.58;;;;;;;;;;5030657;28;20285;-81
2021/11/11 12:02:01;;;;;;;65.35;36.65;;;;;;;;;;5033068;28;20789;-82
2021/11/11 12:04:44;;;;;;;74.40;36.33;;;;;;;;;;5027634;28;20210;-79
2021/11/11 12:07:20;;;;;;;65.63;35.65;;;;;;;;;;5026621;28;20613;-82
2021/11/11 12:09:52;;;;;;;67.10;35.17;;;;;;;;;;5008785;28;20262;-80
2021/11/11 12:15:15;;;;;;;69.57;35.70;;;;;;;;;;5009029;28;20218;-79
2021/11/11 12:18:10;;;;;;;60.47;32.65;;;;;;;;;;5011106;28;20200;-82
2021/11/11 12:34:37;;;;;;;54.28;30.30;;;;;;;;;;5028575;28;20199;-75
2021/11/11 12:39:51;;;;;;;54.15;33.17;;;;;;;;;;5039277;28;20186;-77
2021/11/11 12:42:19;;;;;;;50.85;31.05;;;;;;;;;;5050181;28;20222;-77
2021/11/11 12:45:01;;;;;;;55.92;31.38;;;;;;;;;;5043277;28;20938;-77
2021/11/11 12:47:32;;;;;;;47.95;29.17;;;;;;;;;;5010028;28;20219;-78
2021/11/11 12:50:15;;;;;;;52.70;30.83;;;;;;;;;;5018853;28;20195;-78
2021/11/11 12:52:43;;;;;;;50.67;30.33;;;;;;;;;;5018838;28;20230;-79
2021/11/11 12:55:18;;;;;;;53.50;31.20;;;;;;;;;;5035988;28;20195;-78
2021/11/11 12:57:55;;;;;;;50.85;29.98;;;;;;;;;;5012221;28;20660;-77
2021/11/11 13:00:37;;;;;;;47.33;28.10;;;;;;;;;;5016867;28;20207;-77
2021/11/11 13:03:06;;;;;;;49.80;29.35;;;;;;;;;;5023251;28;20643;-77
2021/11/11 13:05:48;;;;;;;46.97;30.75;;;;;;;;;;5051123;28;20290;-77
2021/11/11 13:08:17;;;;;;;52.35;30.40;;;;;;;;;;5036955;28;20222;-77
2021/11/11 13:10:59;;;;;;;52.83;32.60;;;;;;;;;;5052835;28;20191;-77
2021/11/11 13:13:27;;;;;;;48.75;31.42;;;;;;;;;;5035928;28;20272;-79
2021/11/11 13:15:58;;;;;;;47.35;29.00;;;;;;;;;;5032870;28;20206;-78
2021/11/11 13:18:40;;;;;;;50.00;30.63;;;;;;;;;;5023518;28;20186;-82
2021/11/11 13:21:11;;;;;;;45.83;28.80;;;;;;;;;;5048947;28;20221;-79
2021/11/11 13:23:44;;;;;;;49.58;28.88;;;;;;;;;;5041431;28;20198;-77
2021/11/11 13:26:40;;;;;;;54.00;32.28;;;;;;;;;;5018763;28;20627;-78
2021/11/11 13:59:24;;;;;;;45.22;27.25;;;;;;;;;;5014219;28;20731;-79
2021/11/11 14:03:10;;;;;;;46.65;27.17;;;;;;;;;;5017496;28;20211;-80
2021/11/11 15:18:36;;;;;;;44.28;27.25;;;;;;;;;;5031664;28;20482;-78
2021/11/11 16:01:45;;;;;;;41.42;25.45;;;;;;;;;;5019355;28;20215;-78
2021/11/11 16:20:25;;;;;;;43.78;27.17;;;;;;;;;;5028744;28;20203;-79
2021/11/11 16:25:53;;;;;;;50.05;28.75;;;;;;;;;;4997114;28;20196;-79
2021/11/11 16:28:20;;;;;;;50.40;29.38;;;;;;;;;;5016156;28;20222;-80
2021/11/11 16:30:47;;;;;;;55.47;28.00;;;;;;;;;;5031459;28;20286;-78
2021/11/11 16:33:16;;;;;;;50.50;29.02;;;;;;;;;;5032536;28;20206;-78
2021/11/11 16:35:43;;;;;;;51.40;29.08;;;;;;;;;;5034051;28;20226;-79
2021/11/11 16:38:12;;;;;;;49.65;28.38;;;;;;;;;;5034669;28;20642;-81
2021/11/11 16:40:40;;;;;;;44.78;28.33;;;;;;;;;;5037339;28;20195;-77
2021/11/11 16:43:08;;;;;;;46.67;27.48;;;;;;;;;;5011659;28;20191;-78
2021/11/11 16:45:35;;;;;;;43.05;28.13;;;;;;;;;;5013662;28;20195;-78
2021/11/11 16:48:03;;;;;;;44.83;27.60;;;;;;;;;;5031467;28;20226;-78
2021/11/11 16:50:30;;;;;;;45.88;27.80;;;;;;;;;;5027439;28;20221;-79
2021/11/11 16:52:57;;;;;;;45.90;27.35;;;;;;;;;;5016472;28;20278;-78
2021/11/11 16:55:26;;;;;;;47.60;28.60;;;;;;;;;;5028186;28;20199;-78
2021/11/11 16:57:53;;;;;;;47.17;28.65;;;;;;;;;;5028130;28;20665;-79
2021/11/11 17:00:21;;;;;;;52.38;28.40;;;;;;;;;;5018384;28;20192;-79
2021/11/11 17:02:48;;;;;;;48.08;27.40;;;;;;;;;;5010897;28;20220;-79
2021/11/11 17:05:16;;;;;;;45.63;28.05;;;;;;;;;;5028647;28;20191;-79
2021/11/11 17:07:44;;;;;;;50.15;27.50;;;;;;;;;;5029580;28;20273;-78
2021/11/11 17:10:11;;;;;;;46.65;26.90;;;;;;;;;;5030967;28;20222;-81
2021/11/11 17:12:40;;;;;;;47.40;27.45;;;;;;;;;;5018510;28;20227;-78
2021/11/11 17:15:09;;;;;;;49.67;27.65;;;;;;;;;;4996398;28;20656;-79
2021/11/11 17:17:36;;;;;;;51.80;27.80;;;;;;;;;;5027895;28;20641;-78
2021/11/11 17:20:04;;;;;;;54.00;28.58;;;;;;;;;;5036593;28;20183;-78
2021/11/11 17:22:36;;;;;;;47.10;28.85;;;;;;;;;;5013674;28;20207;-78
2021/11/11 17:27:54;;;;;;;48.97;29.33;;;;;;;;;;4995201;28;20211;-77
2021/11/11 17:30:21;;;;;;;52.13;27.42;;;;;;;;;;5030865;28;20204;-78
2021/11/11 17:32:48;;;;;;;44.90;25.90;;;;;;;;;;5031077;28;20233;-78
2021/11/11 17:35:16;;;;;;;50.53;30.02;;;;;;;;;;5037111;28;20190;-80
2021/11/11 17:37:43;;;;;;;53.13;26.48;;;;;;;;;;5044427;28;20559;-80
2021/11/11 17:40:12;;;;;;;51.53;28.10;;;;;;;;;;5035726;28;20199;-79
2021/11/11 17:42:39;;;;;;;48.53;28.15;;;;;;;;;;5034746;28;20219;-81
2021/11/11 17:45:09;;;;;;;49.75;27.90;;;;;;;;;;5034536;28;20282;-84
2021/11/11 17:47:36;;;;;;;46.33;29.13;;;;;;;;;;5029454;28;20286;-77
2021/11/11 17:50:06;;;;;;;46.40;27.30;;;;;;;;;;5038807;28;20201;-83
2021/11/11 17:52:36;;;;;;;56.50;31.13;;;;;;;;;;5035777;28;20703;-81